Time;durP1;ratioP1;P1;durP2;ratioP2;P2;SDS_P1;SDS_P2;PMS_P1;PMS_P2;Temp;Humidity;BMP_temperature;BMP_pressure;BME280_temperature;BME280_humidity;BME280_pressure;Samples;Min_cycle;Max_cycle;Signal;HPM_P1;HPM_P2
2024/03/12 05:48:09;;;;;;;;;;;;;;;0.08;85.68;101008.14;112823;1250;22965;-59
2024/03/12 05:50:40;;;;;;;;;;;;;;;0.07;85.82;101012.02;112864;1250;22805;-54
2024/03/12 05:53:09;;;;;;;;;;;;;;;0.07;85.70;101014.45;112834;1239;23085;-59
2024/03/12 05:55:41;;;;;;;;;;;;;;;0.09;85.71;101011.31;112805;1250;22435;-59
2024/03/12 05:58:12;;;;;;;;;;;;;;;0.12;85.69;101007.48;112807;1250;22476;-59
2024/03/12 06:00:44;;;;;;;;;;;;;;;0.15;85.60;101004.73;112820;1250;23182;-55
2024/03/12 06:03:15;;;;;;;;;;;;;;;0.20;85.40;101006.55;112729;1238;22366;-53
2024/03/12 06:05:43;;;;;;;;;;;;;;;0.23;85.23;101006.02;112780;1238;23738;-54
2024/03/12 06:08:11;;;;;;;;;;;;;;;0.23;85.06;101005.52;112760;1239;22365;-54
2024/03/12 06:10:46;;;;;;;;;;;;;;;0.26;85.10;101001.39;112728;1239;22423;-60
2024/03/12 06:16:28;;;;;;;;;;;;;;;0.36;84.90;100988.87;112959;1242;23228;-59
2024/03/12 06:18:57;;;;;;;;;;;;;;;0.38;84.22;100987.42;112818;1248;22413;-61
2024/03/12 06:21:29;;;;;;;;;;;;;;;0.38;84.03;100983.30;112699;1248;23331;-55
2024/03/12 06:23:57;;;;;;;;;;;;;;;0.37;84.21;100984.80;112643;1248;23861;-54
2024/03/12 06:26:26;;;;;;;;;;;;;;;0.39;84.53;100985.39;112680;1248;22855;-59
2024/03/12 06:29:26;;;;;;;;;;;;;;;0.41;84.29;100982.41;112815;1248;22489;-54
2024/03/12 06:45:11;;;;;;;;;;;;;;;0.56;83.56;100978.53;112845;1248;23343;-52
2024/03/12 06:56:41;;;;;;;;;;;;;;;0.65;83.50;100964.23;112435;1253;22448;-54
2024/03/12 06:59:56;;;;;;;;;;;;;;;0.67;83.51;100956.48;112421;1248;22621;-50
2024/03/12 07:06:32;;;;;;;;;;;;;;;0.75;83.38;100951.87;112881;1248;22450;-55
2024/03/12 07:09:31;;;;;;;;;;;;;;;0.80;83.21;100950.39;109421;1248;22435;-51
2024/03/12 07:12:26;;;;;;;;;;;;;;;0.85;83.28;100952.70;112709;1248;23025;-50
2024/03/12 07:19:43;;;;;;;;;;;;;;;1.04;82.85;100944.39;112616;1252;23354;-59
2024/03/12 07:22:53;;;;;;;;;;;;;;;1.11;82.83;100938.84;112088;1252;22570;-59
2024/03/12 07:26:01;;;;;;;;;;;;;;;1.18;82.57;100934.06;112252;1252;22986;-59
2024/03/12 07:30:00;;;;;;;;;;;;;;;1.20;82.61;100929.51;112377;1252;23700;-55
2024/03/12 07:33:44;;;;;;;;;;;;;;;1.21;82.46;100925.95;112373;1252;23099;-58
2024/03/12 07:39:34;;;;;;;;;;;;;;;1.33;82.30;100927.03;112332;1252;22925;-55
2024/03/12 07:42:33;;;;;;;;;;;;;;;1.35;82.25;100922.82;112271;1247;22409;-58
2024/03/12 07:45:46;;;;;;;;;;;;;;;1.42;82.21;100918.65;112177;1252;23500;-59
2024/03/12 07:48:23;;;;;;;;;;;;;;;1.45;82.04;100915.02;112394;1252;22511;-59
2024/03/12 07:51:02;;;;;;;;;;;;;;;1.49;82.09;100914.52;112171;1243;22385;-61
2024/03/12 07:53:33;;;;;;;;;;;;;;;1.52;82.17;100915.03;112423;1252;23276;-59
2024/03/12 07:56:06;;;;;;;;;;;;;;;1.58;82.25;100909.80;112733;1248;22397;-56
2024/03/12 07:58:36;;;;;;;;;;;;;;;1.63;81.79;100911.05;112837;1248;22412;-54
2024/03/12 08:01:09;;;;;;;;;;;;;;;1.67;81.73;100900.58;112805;1248;22329;-59
2024/03/12 08:03:40;;;;;;;;;;;;;;;1.71;81.53;100900.90;112763;1248;22402;-58
2024/03/12 08:06:21;;;;;;;;;;;;;;;1.72;81.46;100900.98;112827;1248;22311;-60
2024/03/12 08:08:50;;;;;;;;;;;;;;;1.76;81.58;100905.95;112806;1248;23054;-57
2024/03/12 08:16:57;;;;;;;;;;;;;;;1.89;81.31;100897.27;112511;1251;22449;-53
2024/03/12 08:19:27;;;;;;;;;;;;;;;1.96;80.90;100893.27;112472;1251;22535;-59
2024/03/12 08:22:39;;;;;;;;;;;;;;;2.00;80.71;100894.81;112460;1242;22406;-59
2024/03/12 08:44:55;;;;;;;;;;;;;;;2.33;79.10;100875.40;112622;1248;22419;-59
2024/03/12 08:55:50;;;;;;;;;;;;;;;2.47;77.76;100865.34;112876;1248;22420;-55
2024/03/12 09:03:53;;;;;;;;;;;;;;;2.50;77.66;100858.91;113029;1247;22504;-54
2024/03/12 09:33:41;;;;;;;;;;;;;;;2.87;76.64;100846.45;112934;1248;22469;-54
2024/03/12 09:41:12;;;;;;;;;;;;;;;2.95;75.42;100842.29;112833;1248;22491;-52
2024/03/12 09:44:18;;;;;;;;;;;;;;;2.96;75.19;100841.45;112938;1248;22411;-55
2024/03/12 09:47:05;;;;;;;;;;;;;;;2.95;75.07;100836.23;112892;1248;23191;-52
2024/03/12 09:50:10;;;;;;;;;;;;;;;2.96;75.01;100828.20;112972;1248;22434;-57
2024/03/12 09:52:46;;;;;;;;;;;;;;;2.96;75.11;100826.98;112982;1248;23163;-59
2024/03/12 09:55:31;;;;;;;;;;;;;;;2.93;75.10;100828.79;112799;1248;23270;-59
2024/03/12 09:58:21;;;;;;;;;;;;;;;2.93;75.22;100823.42;112875;1248;22415;-61
2024/03/12 10:01:44;;;;;;;;;;;;;;;2.88;75.29;100820.30;113065;1248;23056;-55
2024/03/12 10:04:27;;;;;;;;;;;;;;;2.86;75.45;100819.02;112832;1248;22551;-56
2024/03/12 10:07:33;;;;;;;;;;;;;;;2.88;75.46;100812.89;112867;1248;22340;-55
2024/03/12 10:10:10;;;;;;;;;;;;;;;2.89;75.46;100810.52;112754;1248;22523;-59
2024/03/12 10:16:27;;;;;;;;;;;;;;;2.91;74.70;100801.48;112750;1239;22808;-60
2024/03/12 10:19:11;;;;;;;;;;;;;;;2.91;74.59;100800.61;112587;1248;22411;-57
2024/03/12 10:21:44;;;;;;;;;;;;;;;2.88;74.43;100798.44;112537;1249;22336;-59
2024/03/12 10:24:17;;;;;;;;;;;;;;;2.89;74.47;100796.20;112544;1249;22496;-61
2024/03/12 10:30:45;;;;;;;;;;;;;;;2.91;74.20;100789.59;112584;1249;22425;-55
2024/03/12 10:33:17;;;;;;;;;;;;;;;2.93;74.27;100789.48;112594;1249;22376;-57
2024/03/12 10:35:45;;;;;;;;;;;;;;;2.99;74.08;100787.98;112728;1249;22871;-56
2024/03/12 10:38:27;;;;;;;;;;;;;;;3.02;73.64;100779.15;112492;1249;22416;-56
2024/03/12 10:40:56;;;;;;;;;;;;;;;3.05;72.95;100774.25;112480;1249;22422;-57
2024/03/12 10:43:24;;;;;;;;;;;;;;;3.04;72.31;100774.23;112649;1249;22461;-56
2024/03/12 10:45:52;;;;;;;;;;;;;;;3.01;72.33;100773.77;112785;1249;22411;-56
2024/03/12 10:48:20;;;;;;;;;;;;;;;3.01;72.30;100771.84;112718;1249;23625;-55
2024/03/12 10:50:49;;;;;;;;;;;;;;;3.04;71.97;100768.18;112840;1249;23163;-55
2024/03/12 10:53:16;;;;;;;;;;;;;;;3.09;71.80;100766.30;112812;1249;22386;-56
2024/03/12 10:55:45;;;;;;;;;;;;;;;3.14;71.52;100762.70;112733;1249;23114;-56
2024/03/12 10:58:14;;;;;;;;;;;;;;;3.17;71.10;100758.00;112595;1249;22404;-56
2024/03/12 11:00:42;;;;;;;;;;;;;;;3.19;70.57;100754.29;112600;1249;22404;-55
2024/03/12 11:03:13;;;;;;;;;;;;;;;3.19;70.35;100753.77;112820;1249;23593;-55
2024/03/12 11:05:42;;;;;;;;;;;;;;;3.21;70.18;100749.00;112688;1249;22581;-56
2024/03/12 11:08:18;;;;;;;;;;;;;;;3.23;69.82;100749.41;112891;1249;23138;-55
2024/03/12 11:10:59;;;;;;;;;;;;;;;3.23;69.34;100747.88;112641;1249;22443;-57
2024/03/12 11:13:39;;;;;;;;;;;;;;;3.24;69.12;100739.63;112740;1249;22480;-58
2024/03/12 11:16:23;;;;;;;;;;;;;;;3.26;69.16;100743.52;112788;1248;22408;-56
2024/03/12 11:18:56;;;;;;;;;;;;;;;3.30;69.03;100733.97;112467;1244;23326;-65
2024/03/12 11:21:41;;;;;;;;;;;;;;;3.31;68.40;100731.09;112823;1249;22482;-64
2024/03/12 11:24:29;;;;;;;;;;;;;;;3.30;67.93;100731.75;112719;1249;22514;-61
2024/03/12 11:27:00;;;;;;;;;;;;;;;3.31;67.71;100723.83;112670;1249;23018;-59
2024/03/12 11:30:04;;;;;;;;;;;;;;;3.31;67.51;100723.99;112765;1249;22399;-69
2024/03/12 11:32:57;;;;;;;;;;;;;;;3.37;67.48;100722.32;112033;1257;22477;-61
2024/03/12 11:35:37;;;;;;;;;;;;;;;3.44;67.11;100723.45;111858;1257;23001;-60
2024/03/12 11:38:06;;;;;;;;;;;;;;;3.51;66.89;100724.53;111637;1257;22432;-53
2024/03/12 11:40:51;;;;;;;;;;;;;;;3.55;65.94;100717.64;111864;1257;22420;-51
2024/03/12 11:43:33;;;;;;;;;;;;;;;3.56;65.65;100717.30;111970;1257;22448;-56
2024/03/12 11:46:15;;;;;;;;;;;;;;;3.56;64.99;100714.74;111976;1257;22837;-55
2024/03/12 11:49:32;;;;;;;;;;;;;;;3.59;64.60;100709.15;112012;1257;22522;-47
2024/03/12 11:52:17;;;;;;;;;;;;;;;3.63;64.13;100705.81;112151;1256;22374;-47
2024/03/12 11:56:27;;;;;;;;;;;;;;;3.67;63.14;100708.39;112102;1256;22489;-52
2024/03/12 11:59:28;;;;;;;;;;;;;;;3.69;62.81;100706.55;112176;1256;23253;-49
2024/03/12 12:01:59;;;;;;;;;;;;;;;3.69;62.42;100706.70;111965;1256;22407;-55
2024/03/12 12:04:37;;;;;;;;;;;;;;;3.68;62.24;100704.79;112013;1256;22416;-57
2024/03/12 12:08:07;;;;;;;;;;;;;;;3.69;62.11;100703.11;112253;1249;22406;-54
2024/03/12 12:11:17;;;;;;;;;;;;;;;3.78;62.38;100703.91;112681;1249;22438;-55
2024/03/12 12:26:26;;;;;;;;;;;;;;;4.32;60.70;100700.34;112214;1256;22404;-58
2024/03/12 12:30:07;;;;;;;;;;;;;;;4.42;59.78;100698.04;112239;1246;22439;-57
2024/03/12 12:32:38;;;;;;;;;;;;;;;4.45;58.55;100694.34;112718;1248;22372;-55
2024/03/12 12:35:31;;;;;;;;;;;;;;;4.45;58.10;100693.66;112806;1247;22975;-60
2024/03/12 12:45:15;;;;;;;;;;;;;;;4.53;57.76;100694.79;112806;1248;22703;-59
2024/03/12 12:52:13;;;;;;;;;;;;;;;4.48;56.37;100695.99;112870;1248;23135;-56
2024/03/12 12:58:51;;;;;;;;;;;;;;;4.27;55.85;100697.42;112839;1246;22607;-61
2024/03/12 13:02:38;;;;;;;;;;;;;;;4.19;55.67;100699.05;112684;1248;23633;-60
2024/03/12 13:05:23;;;;;;;;;;;;;;;4.14;55.57;100701.33;112916;1245;22440;-60
2024/03/12 13:08:25;;;;;;;;;;;;;;;4.13;55.40;100704.23;112484;1248;22434;-65
2024/03/12 13:11:08;;;;;;;;;;;;;;;4.12;55.43;100708.35;112701;1248;23120;-60
2024/03/12 13:13:58;;;;;;;;;;;;;;;4.09;55.39;100708.75;112575;1248;22667;-60
2024/03/12 13:16:29;;;;;;;;;;;;;;;4.08;55.23;100708.55;112636;1248;22489;-63
2024/03/12 13:18:58;;;;;;;;;;;;;;;4.08;55.27;100710.45;112567;1248;22398;-60
2024/03/12 13:21:34;;;;;;;;;;;;;;;4.08;54.89;100709.23;112512;1248;23324;-62
2024/03/12 13:24:04;;;;;;;;;;;;;;;4.06;54.72;100708.83;112453;1248;23506;-63
2024/03/12 13:26:38;;;;;;;;;;;;;;;4.08;54.75;100710.95;112460;1248;22922;-59
2024/03/12 13:29:08;;;;;;;;;;;;;;;4.09;54.58;100707.20;112550;1248;22479;-60
2024/03/12 13:31:37;;;;;;;;;;;;;;;4.07;54.42;100710.06;112565;1248;22480;-60
